createdAt,value
2019-06-08T00:00:03.165Z,0
2019-06-08T00:05:03.347Z,0
2019-06-08T00:10:02.912Z,0
2019-06-08T00:15:03.556Z,0
2019-06-08T00:20:03.003Z,0
2019-06-08T00:25:02.642Z,0
2019-06-08T00:30:03.308Z,0
2019-06-08T00:35:02.867Z,0
2019-06-08T00:40:03.319Z,0
2019-06-08T00:45:02.957Z,0
2019-06-08T00:50:02.462Z,0
2019-06-08T00:55:03.018Z,0
2019-06-08T01:00:10.199Z,0
2019-06-08T01:05:02.762Z,0
2019-06-08T01:10:03.310Z,0
2019-06-08T01:15:03.046Z,0
2019-06-08T01:20:02.664Z,0
2019-06-08T01:25:03.254Z,0
2019-06-08T01:30:02.836Z,0
2019-06-08T01:35:03.374Z,0
2019-06-08T01:40:02.889Z,0
2019-06-08T01:45:03.739Z,0
2019-06-08T01:50:03.374Z,0
2019-06-08T01:55:02.827Z,0
2019-06-08T02:00:28.806Z,0
2019-06-08T02:05:02.541Z,0
2019-06-08T02:10:02.997Z,0
2019-06-08T02:15:02.627Z,0
2019-06-08T02:20:03.209Z,0
2019-06-08T02:25:02.680Z,0
2019-06-08T02:30:03.255Z,0
2019-06-08T02:35:02.731Z,0
2019-06-08T02:40:03.186Z,0
2019-06-08T02:45:02.638Z,1
2019-06-08T02:50:03.095Z,3
2019-06-08T02:55:02.554Z,5
2019-06-08T03:00:03.022Z,7
2019-06-08T03:05:02.481Z,9
2019-06-08T03:10:02.944Z,14
2019-06-08T03:15:02.557Z,19
2019-06-08T03:20:03.010Z,25
2019-06-08T03:25:02.474Z,38
2019-06-08T03:30:16.714Z,48
2019-06-08T03:35:03.435Z,50
2019-06-08T03:40:02.898Z,73
2019-06-08T03:45:03.362Z,73
2019-06-08T03:50:02.809Z,133
2019-06-08T03:55:03.257Z,189
2019-06-08T04:00:12.605Z,319
2019-06-08T04:05:03.071Z,397
2019-06-08T04:10:02.523Z,494
2019-06-08T04:15:03.087Z,463
2019-06-08T04:20:10.075Z,423
2019-06-08T04:25:02.928Z,569
2019-06-08T04:30:03.373Z,374
2019-06-08T04:35:02.844Z,552
2019-06-08T04:40:03.316Z,639
2019-06-08T04:45:02.813Z,838
2019-06-08T04:50:20.764Z,585
2019-06-08T04:55:02.597Z,602
2019-06-08T05:00:11.904Z,522
2019-06-08T05:05:03.267Z,387
2019-06-08T05:10:02.784Z,326
2019-06-08T05:15:03.366Z,321
2019-06-08T05:20:02.824Z,461
2019-06-08T05:25:03.386Z,490
2019-06-08T05:30:08.326Z,653
2019-06-08T05:35:02.616Z,571
2019-06-08T05:40:03.205Z,625
2019-06-08T05:45:02.790Z,791
2019-06-08T05:50:02.557Z,866
2019-06-08T05:55:03.059Z,1000
2019-06-08T06:00:08.815Z,1000
2019-06-08T06:05:02.878Z,1000
2019-06-08T06:10:03.374Z,967
2019-06-08T06:15:02.824Z,1000
2019-06-08T06:20:03.314Z,1000
2019-06-08T06:25:02.889Z,842
2019-06-08T06:30:03.554Z,895
2019-06-08T06:35:02.996Z,1000
2019-06-08T06:40:02.467Z,1000
2019-06-08T06:45:03.090Z,1000
2019-06-08T06:50:02.564Z,2000
2019-06-08T06:55:03.154Z,2000
2019-06-08T07:00:02.672Z,3000
2019-06-08T07:05:03.294Z,3000
2019-06-08T07:10:02.836Z,2000
2019-06-08T07:15:03.263Z,1000
2019-06-08T07:20:02.715Z,1000
2019-06-08T07:25:03.262Z,1000
2019-06-08T07:30:02.864Z,1000
2019-06-08T07:35:03.531Z,1000
2019-06-08T07:40:03.039Z,1000
2019-06-08T07:45:02.665Z,1000
2019-06-08T07:50:04.714Z,1000
2019-06-08T07:55:03.496Z,1000
2019-06-08T08:00:09.242Z,1000
2019-06-08T08:05:03.326Z,2000
2019-06-08T08:10:02.951Z,1000
2019-06-08T08:15:02.556Z,1000
2019-06-08T08:20:03.113Z,1000
2019-06-08T08:25:04.730Z,1000
2019-06-08T08:30:02.692Z,1000
2019-06-08T08:35:03.254Z,2000
2019-06-08T08:40:02.721Z,2000
2019-06-08T08:45:05.504Z,2000
2019-06-08T08:50:03.028Z,2000
2019-06-08T08:55:02.509Z,2000
2019-06-08T09:00:04.753Z,1000
2019-06-08T09:05:03.716Z,1000
2019-06-08T09:10:03.726Z,1000
2019-06-08T09:15:03.886Z,1000
2019-06-08T09:20:03.773Z,2000
2019-06-08T09:25:04.281Z,2000
2019-06-08T09:30:04.711Z,3000
2019-06-08T09:35:04.791Z,4000
2019-06-08T09:40:03.746Z,2000
2019-06-08T09:45:05.411Z,5000
2019-06-08T09:50:04.550Z,9000
2019-06-08T09:55:05.805Z,11000
2019-06-08T10:00:13.981Z,9000
2019-06-08T10:05:04.461Z,8000
2019-06-08T10:10:04.199Z,30000
2019-06-08T10:15:04.654Z,36000
2019-06-08T10:20:04.583Z,17000
2019-06-08T10:25:05.601Z,25000
2019-06-08T10:30:05.822Z,15000
2019-06-08T10:35:05.339Z,13000
2019-06-08T10:40:05.191Z,7000
2019-06-08T10:45:08.048Z,6000
2019-06-08T10:50:07.001Z,13000
2019-06-08T10:55:04.660Z,8000
2019-06-08T11:00:12.368Z,4000
2019-06-08T11:05:05.832Z,2000
2019-06-08T11:10:03.943Z,2000
2019-06-08T11:15:03.557Z,2000
2019-06-08T11:20:04.418Z,2000
2019-06-08T11:25:03.778Z,3000
2019-06-08T11:30:10.820Z,4000
2019-06-08T11:35:04.073Z,4000
2019-06-08T11:40:04.444Z,5000
2019-06-08T11:45:04.432Z,10000
2019-06-08T11:50:04.486Z,37000
2019-06-08T11:55:04.135Z,33000
2019-06-08T12:00:10.944Z,35000
2019-06-08T12:05:03.755Z,36000
2019-06-08T12:10:04.465Z,11000
2019-06-08T12:15:03.080Z,48000
2019-06-08T12:20:03.385Z,17000
2019-06-08T12:25:03.886Z,20000
2019-06-08T12:30:09.034Z,4000
2019-06-08T12:35:03.125Z,3000
2019-06-08T12:40:02.642Z,1000
2019-06-08T12:45:03.131Z,4000
2019-06-08T12:50:02.654Z,9000
2019-06-08T12:55:06.603Z,42000
2019-06-08T13:00:03.333Z,35000
2019-06-08T13:05:02.858Z,35000
2019-06-08T13:10:03.500Z,13000
2019-06-08T13:15:03.013Z,36000
2019-06-08T13:20:02.536Z,35000
2019-06-08T13:25:15.799Z,9000
2019-06-08T13:30:03.120Z,12000
2019-06-08T13:35:02.647Z,7000
2019-06-08T13:40:03.192Z,36000
2019-06-08T13:45:01.937Z,27000
2019-06-08T13:50:03.490Z,8000
2019-06-08T13:55:02.966Z,6000
2019-06-08T14:00:02.424Z,9000
2019-06-08T14:05:02.868Z,9000
2019-06-08T14:10:03.534Z,3000
2019-06-08T14:15:03.092Z,3000
2019-06-08T14:20:02.557Z,3000
2019-06-08T14:25:03.169Z,2000
2019-06-08T14:30:02.615Z,3000
2019-06-08T14:35:03.235Z,15000
2019-06-08T14:40:02.713Z,9000
2019-06-08T14:45:03.217Z,4000
2019-06-08T14:50:02.667Z,2000
2019-06-08T14:55:03.253Z,3000
2019-06-08T15:00:08.657Z,30000
2019-06-08T15:05:03.235Z,21000
2019-06-08T15:10:02.795Z,18000
2019-06-08T15:15:03.297Z,17000
2019-06-08T15:20:02.839Z,17000
2019-06-08T15:25:03.355Z,18000
2019-06-08T15:30:02.799Z,3000
2019-06-08T15:35:03.358Z,2000
2019-06-08T15:40:02.839Z,2000
2019-06-08T15:45:03.524Z,22000
2019-06-08T15:50:02.956Z,23000
2019-06-08T15:55:03.548Z,16000
2019-06-08T16:00:03.005Z,14000
2019-06-08T16:05:02.466Z,14000
2019-06-08T16:10:02.967Z,13000
2019-06-08T16:15:02.571Z,13000
2019-06-08T16:20:03.165Z,12000
2019-06-08T16:25:02.728Z,12000
2019-06-08T16:30:09.360Z,12000
2019-06-08T16:35:02.611Z,11000
2019-06-08T16:40:03.409Z,2000
2019-06-08T16:45:02.955Z,15000
2019-06-08T16:50:03.508Z,3000
2019-06-08T16:55:03.027Z,11000
2019-06-08T17:00:29.885Z,6000
2019-06-08T17:05:02.905Z,10000
2019-06-08T17:10:03.450Z,8000
2019-06-08T17:15:02.981Z,6000
2019-06-08T17:20:04.705Z,8000
2019-06-08T17:25:02.618Z,2000
2019-06-08T17:30:08.388Z,9000
2019-06-08T17:35:03.417Z,8000
2019-06-08T17:40:02.917Z,3000
2019-06-08T17:45:03.502Z,2000
2019-06-08T17:50:02.966Z,4000
2019-06-08T17:55:02.448Z,5000
2019-06-08T18:00:03.501Z,994
2019-06-08T18:05:03.169Z,1000
2019-06-08T18:10:02.707Z,1000
2019-06-08T18:15:03.251Z,1000
2019-06-08T18:20:02.771Z,2000
2019-06-08T18:25:03.364Z,2000
2019-06-08T18:30:08.339Z,846
2019-06-08T18:35:03.122Z,700
2019-06-08T18:40:02.595Z,948
2019-06-08T18:45:03.168Z,1000
2019-06-08T18:50:02.765Z,1000
2019-06-08T18:55:03.618Z,1000
2019-06-08T19:00:08.348Z,971
2019-06-08T19:05:02.480Z,922
2019-06-08T19:10:02.221Z,874
2019-06-08T19:15:02.737Z,776
2019-06-08T19:20:03.273Z,726
2019-06-08T19:25:02.828Z,462
2019-06-08T19:30:03.341Z,415
2019-06-08T19:35:02.922Z,284
2019-06-08T19:40:03.725Z,153
2019-06-08T19:45:05.449Z,82
2019-06-08T19:50:02.436Z,67
2019-06-08T19:55:02.843Z,60
2019-06-08T20:00:03.314Z,44
2019-06-08T20:05:02.794Z,35
2019-06-08T20:10:03.231Z,22
2019-06-08T20:15:02.712Z,19
2019-06-08T20:20:03.288Z,7
2019-06-08T20:25:02.777Z,4
2019-06-08T20:30:08.812Z,2
2019-06-08T20:35:02.480Z,1
2019-06-08T20:40:10.237Z,0
2019-06-08T20:45:03.322Z,0
2019-06-08T20:50:02.855Z,0
2019-06-08T20:55:03.398Z,0
2019-06-08T21:00:08.347Z,0
2019-06-08T21:05:02.954Z,0
2019-06-08T21:10:02.423Z,0
2019-06-08T21:15:02.923Z,0
2019-06-08T21:20:03.456Z,0
2019-06-08T21:25:02.929Z,0
2019-06-08T21:30:08.624Z,0
2019-06-08T21:35:03.463Z,0
2019-06-08T21:40:04.365Z,0
2019-06-08T21:45:06.177Z,0
2019-06-08T21:50:02.500Z,0
2019-06-08T21:55:02.952Z,0
2019-06-08T22:00:19.472Z,0
2019-06-08T22:05:04.658Z,0
2019-06-08T22:10:03.311Z,0
2019-06-08T22:15:03.157Z,0
2019-06-08T22:20:03.421Z,0
2019-06-08T22:25:03.677Z,0
2019-06-08T22:30:09.743Z,0
2019-06-08T22:35:03.579Z,0
2019-06-08T22:40:03.622Z,0
2019-06-08T22:45:03.929Z,0
2019-06-08T22:50:03.698Z,0
2019-06-08T22:55:07.026Z,0
2019-06-08T23:00:14.566Z,0
2019-06-08T23:05:04.180Z,0
2019-06-08T23:10:04.696Z,0
2019-06-08T23:15:03.868Z,0
2019-06-08T23:20:03.580Z,0
2019-06-08T23:25:04.397Z,0
2019-06-08T23:30:03.805Z,0
2019-06-08T23:35:02.966Z,0
2019-06-08T23:40:03.772Z,0
2019-06-08T23:45:03.831Z,0
2019-06-08T23:50:09.078Z,0
2019-06-08T23:55:04.270Z,0
